sensor_id;sensor_type;location;lat;lon;timestamp;P1;durP1;ratioP1;P2;durP2;ratioP2
43933;SDS011;59081;42.706;23.306;2024-01-15T00:02:04;183.43;;;82.10;;
43933;SDS011;59081;42.706;23.306;2024-01-15T00:07:06;181.98;;;91.70;;
43933;SDS011;59081;42.706;23.306;2024-01-15T00:12:07;190.13;;;95.15;;
43933;SDS011;59081;42.706;23.306;2024-01-15T00:17:08;202.63;;;97.72;;
43933;SDS011;59081;42.706;23.306;2024-01-15T00:22:08;176.30;;;84.53;;
43933;SDS011;59081;42.706;23.306;2024-01-15T00:27:09;193.55;;;92.60;;
43933;SDS011;59081;42.706;23.306;2024-01-15T00:32:10;197.40;;;85.80;;
43933;SDS011;59081;42.706;23.306;2024-01-15T00:37:10;204.55;;;96.13;;
43933;SDS011;59081;42.706;23.306;2024-01-15T00:42:14;210.35;;;97.20;;
43933;SDS011;59081;42.706;23.306;2024-01-15T00:47:14;206.00;;;95.03;;
43933;SDS011;59081;42.706;23.306;2024-01-15T00:52:15;209.98;;;101.35;;
43933;SDS011;59081;42.706;23.306;2024-01-15T00:57:16;204.18;;;93.90;;
43933;SDS011;59081;42.706;23.306;2024-01-15T01:02:17;223.70;;;107.97;;
43933;SDS011;59081;42.706;23.306;2024-01-15T01:07:18;224.60;;;100.40;;
43933;SDS011;59081;42.706;23.306;2024-01-15T01:12:19;182.25;;;79.78;;
43933;SDS011;59081;42.706;23.306;2024-01-15T01:17:20;230.50;;;107.15;;
43933;SDS011;59081;42.706;23.306;2024-01-15T01:22:21;210.40;;;103.40;;
43933;SDS011;59081;42.706;23.306;2024-01-15T01:27:21;228.95;;;106.15;;
43933;SDS011;59081;42.706;23.306;2024-01-15T01:32:24;207.25;;;98.07;;
43933;SDS011;59081;42.706;23.306;2024-01-15T01:37:25;210.57;;;98.95;;
43933;SDS011;59081;42.706;23.306;2024-01-15T01:42:25;190.18;;;91.80;;
43933;SDS011;59081;42.706;23.306;2024-01-15T01:47:26;204.00;;;91.78;;
43933;SDS011;59081;42.706;23.306;2024-01-15T01:52:27;211.30;;;100.32;;
43933;SDS011;59081;42.706;23.306;2024-01-15T01:57:27;200.02;;;92.03;;
43933;SDS011;59081;42.706;23.306;2024-01-15T02:02:32;194.00;;;90.68;;
43933;SDS011;59081;42.706;23.306;2024-01-15T02:07:36;204.73;;;98.63;;
43933;SDS011;59081;42.706;23.306;2024-01-15T02:12:37;204.00;;;98.43;;
43933;SDS011;59081;42.706;23.306;2024-01-15T02:28:18;213.77;;;100.38;;
43933;SDS011;59081;42.706;23.306;2024-01-15T02:33:19;219.07;;;104.40;;
43933;SDS011;59081;42.706;23.306;2024-01-15T02:38:19;179.90;;;77.40;;
43933;SDS011;59081;42.706;23.306;2024-01-15T02:43:20;209.65;;;97.78;;
43933;SDS011;59081;42.706;23.306;2024-01-15T02:48:21;207.77;;;99.15;;
43933;SDS011;59081;42.706;23.306;2024-01-15T02:53:21;213.38;;;103.03;;
43933;SDS011;59081;42.706;23.306;2024-01-15T02:58:22;187.70;;;97.47;;
43933;SDS011;59081;42.706;23.306;2024-01-15T03:03:23;173.20;;;71.32;;
43933;SDS011;59081;42.706;23.306;2024-01-15T03:08:23;193.02;;;95.20;;
43933;SDS011;59081;42.706;23.306;2024-01-15T03:13:24;192.60;;;91.28;;
43933;SDS011;59081;42.706;23.306;2024-01-15T03:18:24;215.32;;;101.10;;
43933;SDS011;59081;42.706;23.306;2024-01-15T03:23:25;214.20;;;96.95;;
43933;SDS011;59081;42.706;23.306;2024-01-15T03:28:26;198.35;;;90.82;;
43933;SDS011;59081;42.706;23.306;2024-01-15T03:33:26;183.45;;;83.15;;
43933;SDS011;59081;42.706;23.306;2024-01-15T03:38:28;158.73;;;76.78;;
43933;SDS011;59081;42.706;23.306;2024-01-15T03:43:29;155.13;;;73.03;;
43933;SDS011;59081;42.706;23.306;2024-01-15T03:48:29;94.00;;;44.55;;
43933;SDS011;59081;42.706;23.306;2024-01-15T03:53:30;159.48;;;77.60;;
43933;SDS011;59081;42.706;23.306;2024-01-15T03:58:31;130.55;;;65.50;;
43933;SDS011;59081;42.706;23.306;2024-01-15T04:03:31;137.18;;;62.90;;
43933;SDS011;59081;42.706;23.306;2024-01-15T04:08:32;120.43;;;59.05;;
43933;SDS011;59081;42.706;23.306;2024-01-15T04:13:32;108.75;;;49.33;;
43933;SDS011;59081;42.706;23.306;2024-01-15T04:18:33;94.70;;;44.58;;
43933;SDS011;59081;42.706;23.306;2024-01-15T04:23:34;108.00;;;47.17;;
43933;SDS011;59081;42.706;23.306;2024-01-15T04:28:35;145.60;;;63.63;;
43933;SDS011;59081;42.706;23.306;2024-01-15T04:33:35;136.98;;;60.85;;
43933;SDS011;59081;42.706;23.306;2024-01-15T04:38:36;108.30;;;46.38;;
43933;SDS011;59081;42.706;23.306;2024-01-15T04:43:36;141.95;;;71.07;;
43933;SDS011;59081;42.706;23.306;2024-01-15T04:48:37;157.20;;;77.68;;
43933;SDS011;59081;42.706;23.306;2024-01-15T04:53:38;165.45;;;78.60;;
43933;SDS011;59081;42.706;23.306;2024-01-15T04:58:41;159.25;;;75.32;;
43933;SDS011;59081;42.706;23.306;2024-01-15T05:03:44;107.93;;;48.25;;
43933;SDS011;59081;42.706;23.306;2024-01-15T05:08:45;149.10;;;71.13;;
43933;SDS011;59081;42.706;23.306;2024-01-15T05:13:46;141.88;;;66.22;;
43933;SDS011;59081;42.706;23.306;2024-01-15T05:18:46;137.07;;;63.65;;
43933;SDS011;59081;42.706;23.306;2024-01-15T05:23:47;135.65;;;65.10;;
43933;SDS011;59081;42.706;23.306;2024-01-15T05:28:48;101.60;;;42.25;;
43933;SDS011;59081;42.706;23.306;2024-01-15T05:33:48;137.10;;;68.78;;
43933;SDS011;59081;42.706;23.306;2024-01-15T05:38:51;138.57;;;66.20;;
43933;SDS011;59081;42.706;23.306;2024-01-15T05:43:52;149.63;;;72.10;;
43933;SDS011;59081;42.706;23.306;2024-01-15T05:48:58;15.85;;;12.35;;
43933;SDS011;59081;42.706;23.306;2024-01-15T05:53:59;139.70;;;69.15;;
43933;SDS011;59081;42.706;23.306;2024-01-15T05:59:01;131.82;;;64.40;;
43933;SDS011;59081;42.706;23.306;2024-01-15T06:04:04;145.48;;;71.57;;
43933;SDS011;59081;42.706;23.306;2024-01-15T06:09:06;156.85;;;80.28;;
43933;SDS011;59081;42.706;23.306;2024-01-15T06:14:15;161.65;;;78.47;;
43933;SDS011;59081;42.706;23.306;2024-01-15T06:19:16;163.48;;;74.50;;
43933;SDS011;59081;42.706;23.306;2024-01-15T06:24:17;159.07;;;74.45;;
43933;SDS011;59081;42.706;23.306;2024-01-15T06:29:20;166.07;;;77.28;;
43933;SDS011;59081;42.706;23.306;2024-01-15T06:34:25;144.90;;;70.60;;
43933;SDS011;59081;42.706;23.306;2024-01-15T06:39:31;151.15;;;70.82;;
43933;SDS011;59081;42.706;23.306;2024-01-15T06:44:32;127.90;;;52.05;;
43933;SDS011;59081;42.706;23.306;2024-01-15T06:49:32;148.38;;;70.03;;
43933;SDS011;59081;42.706;23.306;2024-01-15T06:54:33;150.55;;;69.30;;
43933;SDS011;59081;42.706;23.306;2024-01-15T06:59:36;171.43;;;76.47;;
43933;SDS011;59081;42.706;23.306;2024-01-15T07:09:51;156.25;;;69.38;;
43933;SDS011;59081;42.706;23.306;2024-01-15T07:14:52;140.60;;;68.40;;
43933;SDS011;59081;42.706;23.306;2024-01-15T07:19:56;139.32;;;68.43;;
43933;SDS011;59081;42.706;23.306;2024-01-15T07:24:56;115.32;;;50.60;;
43933;SDS011;59081;42.706;23.306;2024-01-15T07:29:57;143.75;;;66.65;;
43933;SDS011;59081;42.706;23.306;2024-01-15T07:34:58;148.65;;;66.63;;
43933;SDS011;59081;42.706;23.306;2024-01-15T07:45:06;120.78;;;59.70;;
43933;SDS011;59081;42.706;23.306;2024-01-15T07:56:26;116.85;;;49.45;;
43933;SDS011;59081;42.706;23.306;2024-01-15T08:01:28;138.85;;;64.22;;
43933;SDS011;59081;42.706;23.306;2024-01-15T08:11:40;143.93;;;61.92;;
43933;SDS011;59081;42.706;23.306;2024-01-15T08:16:41;156.70;;;74.70;;
43933;SDS011;59081;42.706;23.306;2024-01-15T08:21:44;163.68;;;82.80;;
43933;SDS011;59081;42.706;23.306;2024-01-15T08:26:45;169.13;;;81.22;;
43933;SDS011;59081;42.706;23.306;2024-01-15T08:31:46;157.75;;;76.75;;
43933;SDS011;59081;42.706;23.306;2024-01-15T08:37:05;154.23;;;77.63;;
43933;SDS011;59081;42.706;23.306;2024-01-15T08:42:07;156.13;;;81.82;;
43933;SDS011;59081;42.706;23.306;2024-01-15T08:47:08;159.15;;;85.53;;
43933;SDS011;59081;42.706;23.306;2024-01-15T08:52:11;164.82;;;79.45;;
43933;SDS011;59081;42.706;23.306;2024-01-15T08:57:15;182.00;;;87.95;;
43933;SDS011;59081;42.706;23.306;2024-01-15T09:02:16;173.38;;;87.15;;
43933;SDS011;59081;42.706;23.306;2024-01-15T09:07:21;156.57;;;74.43;;
43933;SDS011;59081;42.706;23.306;2024-01-15T09:12:25;176.20;;;83.88;;
43933;SDS011;59081;42.706;23.306;2024-01-15T09:17:26;171.60;;;81.65;;
43933;SDS011;59081;42.706;23.306;2024-01-15T09:22:28;158.52;;;76.03;;
43933;SDS011;59081;42.706;23.306;2024-01-15T09:27:28;172.75;;;81.18;;
43933;SDS011;59081;42.706;23.306;2024-01-15T09:32:29;160.30;;;87.25;;
43933;SDS011;59081;42.706;23.306;2024-01-15T09:37:34;164.80;;;83.22;;
43933;SDS011;59081;42.706;23.306;2024-01-15T09:42:34;164.32;;;80.32;;
43933;SDS011;59081;42.706;23.306;2024-01-15T09:47:36;162.05;;;81.53;;
43933;SDS011;59081;42.706;23.306;2024-01-15T09:52:38;168.20;;;80.10;;
43933;SDS011;59081;42.706;23.306;2024-01-15T09:57:40;171.45;;;83.78;;
43933;SDS011;59081;42.706;23.306;2024-01-15T10:02:41;152.32;;;67.78;;
43933;SDS011;59081;42.706;23.306;2024-01-15T10:07:42;123.53;;;62.38;;
43933;SDS011;59081;42.706;23.306;2024-01-15T10:12:43;126.20;;;54.00;;
43933;SDS011;59081;42.706;23.306;2024-01-15T10:17:44;113.78;;;51.58;;
43933;SDS011;59081;42.706;23.306;2024-01-15T10:22:45;109.47;;;53.90;;
43933;SDS011;59081;42.706;23.306;2024-01-15T10:27:52;102.18;;;47.75;;
43933;SDS011;59081;42.706;23.306;2024-01-15T10:33:03;92.60;;;45.10;;
43933;SDS011;59081;42.706;23.306;2024-01-15T10:38:05;72.70;;;38.25;;
43933;SDS011;59081;42.706;23.306;2024-01-15T10:43:06;76.57;;;40.83;;
43933;SDS011;59081;42.706;23.306;2024-01-15T10:48:06;79.80;;;42.53;;
43933;SDS011;59081;42.706;23.306;2024-01-15T10:53:08;77.10;;;40.60;;
43933;SDS011;59081;42.706;23.306;2024-01-15T10:58:11;73.80;;;37.22;;
43933;SDS011;59081;42.706;23.306;2024-01-15T11:03:13;73.33;;;36.30;;
43933;SDS011;59081;42.706;23.306;2024-01-15T11:08:16;76.30;;;37.17;;
43933;SDS011;59081;42.706;23.306;2024-01-15T11:18:41;80.15;;;39.10;;
43933;SDS011;59081;42.706;23.306;2024-01-15T11:23:43;79.22;;;36.95;;
43933;SDS011;59081;42.706;23.306;2024-01-15T11:28:49;68.43;;;36.03;;
43933;SDS011;59081;42.706;23.306;2024-01-15T11:33:49;72.20;;;36.10;;
43933;SDS011;59081;42.706;23.306;2024-01-15T11:38:50;66.00;;;33.65;;
43933;SDS011;59081;42.706;23.306;2024-01-15T11:43:51;83.78;;;41.95;;
43933;SDS011;59081;42.706;23.306;2024-01-15T11:48:52;58.63;;;31.92;;
43933;SDS011;59081;42.706;23.306;2024-01-15T11:54:05;68.50;;;31.95;;
43933;SDS011;59081;42.706;23.306;2024-01-15T11:59:11;60.95;;;28.80;;
43933;SDS011;59081;42.706;23.306;2024-01-15T12:04:11;54.25;;;25.23;;
43933;SDS011;59081;42.706;23.306;2024-01-15T12:09:13;49.10;;;26.70;;
43933;SDS011;59081;42.706;23.306;2024-01-15T12:14:14;54.08;;;28.08;;
43933;SDS011;59081;42.706;23.306;2024-01-15T12:19:15;50.30;;;27.15;;
43933;SDS011;59081;42.706;23.306;2024-01-15T12:24:16;47.53;;;26.13;;
43933;SDS011;59081;42.706;23.306;2024-01-15T12:34:38;50.60;;;24.55;;
43933;SDS011;59081;42.706;23.306;2024-01-15T12:39:38;46.47;;;23.45;;
43933;SDS011;59081;42.706;23.306;2024-01-15T12:44:46;49.45;;;25.05;;
43933;SDS011;59081;42.706;23.306;2024-01-15T12:49:47;46.58;;;23.73;;
43933;SDS011;59081;42.706;23.306;2024-01-15T12:54:51;49.20;;;24.20;;
43933;SDS011;59081;42.706;23.306;2024-01-15T12:59:54;56.83;;;24.42;;
43933;SDS011;59081;42.706;23.306;2024-01-15T13:04:55;48.25;;;25.02;;
43933;SDS011;59081;42.706;23.306;2024-01-15T13:09:56;50.15;;;23.83;;
43933;SDS011;59081;42.706;23.306;2024-01-15T13:14:58;46.47;;;22.80;;
43933;SDS011;59081;42.706;23.306;2024-01-15T13:19:58;53.13;;;25.27;;
43933;SDS011;59081;42.706;23.306;2024-01-15T13:24:59;46.90;;;24.38;;
43933;SDS011;59081;42.706;23.306;2024-01-15T13:30:00;65.50;;;29.15;;
43933;SDS011;59081;42.706;23.306;2024-01-15T13:35:01;57.13;;;27.02;;
43933;SDS011;59081;42.706;23.306;2024-01-15T13:40:05;43.80;;;22.95;;
43933;SDS011;59081;42.706;23.306;2024-01-15T13:45:08;45.60;;;22.05;;
43933;SDS011;59081;42.706;23.306;2024-01-15T13:50:09;44.75;;;22.00;;
43933;SDS011;59081;42.706;23.306;2024-01-15T13:55:10;41.85;;;22.05;;
43933;SDS011;59081;42.706;23.306;2024-01-15T14:00:11;42.40;;;22.08;;
43933;SDS011;59081;42.706;23.306;2024-01-15T14:05:13;82.27;;;32.17;;
43933;SDS011;59081;42.706;23.306;2024-01-15T14:10:19;78.50;;;35.20;;
43933;SDS011;59081;42.706;23.306;2024-01-15T14:15:20;48.17;;;25.45;;
43933;SDS011;59081;42.706;23.306;2024-01-15T14:20:21;61.33;;;26.48;;
43933;SDS011;59081;42.706;23.306;2024-01-15T14:25:22;64.43;;;29.27;;
43933;SDS011;59081;42.706;23.306;2024-01-15T14:30:24;55.70;;;26.48;;
43933;SDS011;59081;42.706;23.306;2024-01-15T14:35:24;67.95;;;32.42;;
43933;SDS011;59081;42.706;23.306;2024-01-15T14:40:25;57.50;;;25.52;;
43933;SDS011;59081;42.706;23.306;2024-01-15T14:45:26;66.75;;;28.90;;
43933;SDS011;59081;42.706;23.306;2024-01-15T14:50:47;57.95;;;26.30;;
43933;SDS011;59081;42.706;23.306;2024-01-15T14:55:48;63.28;;;26.60;;
43933;SDS011;59081;42.706;23.306;2024-01-15T15:00:49;61.88;;;28.48;;
43933;SDS011;59081;42.706;23.306;2024-01-15T15:05:49;62.83;;;27.83;;
43933;SDS011;59081;42.706;23.306;2024-01-15T15:10:50;55.00;;;26.83;;
43933;SDS011;59081;42.706;23.306;2024-01-15T15:15:51;57.35;;;26.65;;
43933;SDS011;59081;42.706;23.306;2024-01-15T15:20:54;65.22;;;27.83;;
43933;SDS011;59081;42.706;23.306;2024-01-15T15:31:08;55.50;;;25.02;;
43933;SDS011;59081;42.706;23.306;2024-01-15T15:36:17;58.90;;;29.48;;
43933;SDS011;59081;42.706;23.306;2024-01-15T15:46:39;61.13;;;28.38;;
43933;SDS011;59081;42.706;23.306;2024-01-15T15:51:40;65.75;;;32.30;;
43933;SDS011;59081;42.706;23.306;2024-01-15T15:56:41;67.95;;;32.42;;
43933;SDS011;59081;42.706;23.306;2024-01-15T16:01:47;72.35;;;35.90;;
43933;SDS011;59081;42.706;23.306;2024-01-15T16:06:49;67.78;;;33.40;;
43933;SDS011;59081;42.706;23.306;2024-01-15T16:11:50;78.00;;;38.83;;
43933;SDS011;59081;42.706;23.306;2024-01-15T16:16:55;79.65;;;38.28;;
43933;SDS011;59081;42.706;23.306;2024-01-15T16:21:57;86.30;;;39.65;;
43933;SDS011;59081;42.706;23.306;2024-01-15T16:26:59;75.90;;;37.08;;
43933;SDS011;59081;42.706;23.306;2024-01-15T16:32:00;76.47;;;37.50;;
43933;SDS011;59081;42.706;23.306;2024-01-15T16:37:01;77.63;;;36.03;;
43933;SDS011;59081;42.706;23.306;2024-01-15T16:42:02;61.83;;;28.83;;
43933;SDS011;59081;42.706;23.306;2024-01-15T16:47:04;51.38;;;28.65;;
43933;SDS011;59081;42.706;23.306;2024-01-15T16:52:05;61.90;;;28.35;;
43933;SDS011;59081;42.706;23.306;2024-01-15T16:57:06;59.28;;;28.52;;
43933;SDS011;59081;42.706;23.306;2024-01-15T17:02:07;79.13;;;29.15;;
43933;SDS011;59081;42.706;23.306;2024-01-15T17:07:08;61.47;;;31.25;;
43933;SDS011;59081;42.706;23.306;2024-01-15T17:12:10;62.15;;;28.52;;
43933;SDS011;59081;42.706;23.306;2024-01-15T17:17:11;60.45;;;31.13;;
43933;SDS011;59081;42.706;23.306;2024-01-15T17:22:16;64.13;;;29.00;;
43933;SDS011;59081;42.706;23.306;2024-01-15T17:27:16;68.07;;;29.30;;
43933;SDS011;59081;42.706;23.306;2024-01-15T17:32:18;58.42;;;29.02;;
43933;SDS011;59081;42.706;23.306;2024-01-15T17:37:21;69.32;;;29.17;;
43933;SDS011;59081;42.706;23.306;2024-01-15T17:42:24;64.93;;;31.45;;
43933;SDS011;59081;42.706;23.306;2024-01-15T17:47:25;69.45;;;30.42;;
43933;SDS011;59081;42.706;23.306;2024-01-15T17:52:30;73.47;;;31.45;;
43933;SDS011;59081;42.706;23.306;2024-01-15T17:57:30;62.40;;;30.05;;
43933;SDS011;59081;42.706;23.306;2024-01-15T18:02:31;59.03;;;28.95;;
43933;SDS011;59081;42.706;23.306;2024-01-15T18:07:32;55.33;;;28.52;;
43933;SDS011;59081;42.706;23.306;2024-01-15T18:12:32;57.20;;;26.92;;
43933;SDS011;59081;42.706;23.306;2024-01-15T18:17:33;44.65;;;22.48;;
43933;SDS011;59081;42.706;23.306;2024-01-15T18:22:37;39.15;;;21.42;;
43933;SDS011;59081;42.706;23.306;2024-01-15T18:27:39;47.33;;;22.17;;
43933;SDS011;59081;42.706;23.306;2024-01-15T18:32:39;39.05;;;20.35;;
43933;SDS011;59081;42.706;23.306;2024-01-15T18:37:43;35.13;;;18.15;;
43933;SDS011;59081;42.706;23.306;2024-01-15T18:42:46;31.25;;;16.20;;
43933;SDS011;59081;42.706;23.306;2024-01-15T18:47:49;39.50;;;19.55;;
43933;SDS011;59081;42.706;23.306;2024-01-15T18:52:50;38.30;;;18.73;;
43933;SDS011;59081;42.706;23.306;2024-01-15T18:57:53;39.58;;;19.23;;
43933;SDS011;59081;42.706;23.306;2024-01-15T19:02:53;37.42;;;18.30;;
43933;SDS011;59081;42.706;23.306;2024-01-15T19:07:57;45.63;;;22.58;;
43933;SDS011;59081;42.706;23.306;2024-01-15T19:12:59;37.33;;;21.25;;
43933;SDS011;59081;42.706;23.306;2024-01-15T19:18:00;41.45;;;19.65;;
43933;SDS011;59081;42.706;23.306;2024-01-15T19:23:00;35.22;;;18.08;;
43933;SDS011;59081;42.706;23.306;2024-01-15T19:28:04;31.10;;;13.35;;
43933;SDS011;59081;42.706;23.306;2024-01-15T19:33:05;29.50;;;13.40;;
43933;SDS011;59081;42.706;23.306;2024-01-15T19:38:06;30.73;;;14.13;;
43933;SDS011;59081;42.706;23.306;2024-01-15T19:43:07;34.10;;;15.75;;
43933;SDS011;59081;42.706;23.306;2024-01-15T19:48:08;33.38;;;15.23;;
43933;SDS011;59081;42.706;23.306;2024-01-15T19:53:08;26.63;;;14.18;;
43933;SDS011;59081;42.706;23.306;2024-01-15T19:58:09;25.17;;;13.30;;
43933;SDS011;59081;42.706;23.306;2024-01-15T20:03:10;25.23;;;12.77;;
43933;SDS011;59081;42.706;23.306;2024-01-15T20:08:10;20.65;;;8.48;;
43933;SDS011;59081;42.706;23.306;2024-01-15T20:13:11;22.27;;;11.32;;
43933;SDS011;59081;42.706;23.306;2024-01-15T20:18:11;24.08;;;11.35;;
43933;SDS011;59081;42.706;23.306;2024-01-15T20:23:12;22.98;;;11.57;;
43933;SDS011;59081;42.706;23.306;2024-01-15T20:28:13;22.75;;;11.15;;
43933;SDS011;59081;42.706;23.306;2024-01-15T20:33:13;18.45;;;9.70;;
43933;SDS011;59081;42.706;23.306;2024-01-15T20:38:15;21.40;;;11.23;;
43933;SDS011;59081;42.706;23.306;2024-01-15T20:43:15;22.73;;;12.60;;
43933;SDS011;59081;42.706;23.306;2024-01-15T20:48:16;23.05;;;12.43;;
43933;SDS011;59081;42.706;23.306;2024-01-15T20:53:16;23.55;;;11.77;;
43933;SDS011;59081;42.706;23.306;2024-01-15T20:58:23;22.60;;;11.05;;
43933;SDS011;59081;42.706;23.306;2024-01-15T21:03:24;21.33;;;11.32;;
43933;SDS011;59081;42.706;23.306;2024-01-15T21:08:24;21.95;;;10.90;;
43933;SDS011;59081;42.706;23.306;2024-01-15T21:13:25;18.60;;;10.00;;
43933;SDS011;59081;42.706;23.306;2024-01-15T21:18:26;21.63;;;11.10;;
43933;SDS011;59081;42.706;23.306;2024-01-15T21:23:27;15.38;;;8.77;;
43933;SDS011;59081;42.706;23.306;2024-01-15T21:28:28;22.08;;;10.57;;
43933;SDS011;59081;42.706;23.306;2024-01-15T21:33:30;21.20;;;9.93;;
43933;SDS011;59081;42.706;23.306;2024-01-15T21:38:36;18.58;;;9.55;;
43933;SDS011;59081;42.706;23.306;2024-01-15T21:43:37;21.98;;;10.65;;
43933;SDS011;59081;42.706;23.306;2024-01-15T21:48:39;19.63;;;10.07;;
43933;SDS011;59081;42.706;23.306;2024-01-15T21:53:40;14.63;;;8.43;;
43933;SDS011;59081;42.706;23.306;2024-01-15T21:58:40;18.60;;;9.93;;
43933;SDS011;59081;42.706;23.306;2024-01-15T22:03:41;13.48;;;7.95;;
43933;SDS011;59081;42.706;23.306;2024-01-15T22:08:42;17.25;;;8.52;;
43933;SDS011;59081;42.706;23.306;2024-01-15T22:13:44;15.02;;;8.02;;
43933;SDS011;59081;42.706;23.306;2024-01-15T22:18:45;15.80;;;7.70;;
43933;SDS011;59081;42.706;23.306;2024-01-15T22:23:47;16.50;;;9.27;;
43933;SDS011;59081;42.706;23.306;2024-01-15T22:28:47;15.82;;;8.38;;
43933;SDS011;59081;42.706;23.306;2024-01-15T22:33:48;16.60;;;8.50;;
43933;SDS011;59081;42.706;23.306;2024-01-15T22:38:49;19.67;;;11.65;;
43933;SDS011;59081;42.706;23.306;2024-01-15T22:43:50;16.13;;;9.05;;
43933;SDS011;59081;42.706;23.306;2024-01-15T22:48:50;16.08;;;9.18;;
43933;SDS011;59081;42.706;23.306;2024-01-15T22:53:51;17.80;;;9.02;;
43933;SDS011;59081;42.706;23.306;2024-01-15T22:58:51;13.77;;;8.18;;
43933;SDS011;59081;42.706;23.306;2024-01-15T23:03:52;17.45;;;9.80;;
43933;SDS011;59081;42.706;23.306;2024-01-15T23:08:52;15.80;;;9.38;;
43933;SDS011;59081;42.706;23.306;2024-01-15T23:13:53;21.17;;;10.68;;
43933;SDS011;59081;42.706;23.306;2024-01-15T23:18:54;16.02;;;8.75;;
43933;SDS011;59081;42.706;23.306;2024-01-15T23:23:55;19.05;;;9.45;;
43933;SDS011;59081;42.706;23.306;2024-01-15T23:28:55;23.58;;;12.23;;
43933;SDS011;59081;42.706;23.306;2024-01-15T23:33:56;24.45;;;12.48;;
43933;SDS011;59081;42.706;23.306;2024-01-15T23:38:57;20.48;;;12.65;;
43933;SDS011;59081;42.706;23.306;2024-01-15T23:43:57;19.13;;;11.15;;
43933;SDS011;59081;42.706;23.306;2024-01-15T23:48:58;24.75;;;12.82;;
43933;SDS011;59081;42.706;23.306;2024-01-15T23:53:59;25.20;;;14.27;;
43933;SDS011;59081;42.706;23.306;2024-01-15T23:58:59;20.63;;;10.38;;
